GW6623 Weather Reports


time (UTC)temp
F
wind
direction
speed
knots
gust
knots
rain 1hr
in
rain 24hr
in
rain mn
in
humidity
%
barometer
mb
20260502151756 53 21 1.7 1.7 0.00 0.00 0.00 48 1022.6
20260502151253 52 51 0.9 1.7 0.00 0.00 0.00 49 1022.5
20260502150751 51 117 0.0 0.9 0.00 0.00 0.00 49 1022.3
20260502150247 49 247 0.9 1.7 0.00 0.00 0.00 51 1022.4
20260502130636 29 240 0.0 0.9 0.00 0.00 0.00 84 1022.6
20260502130134 28 230 0.0 0.0 0.00 0.00 0.00 83 1022.8
20260502123620 26 230 0.0 0.0 0.00 0.00 0.00 86 1022.8
20260502123115 26 229 0.0 0.0 0.00 0.00 0.00 86 1022.8
20260502122612 26 230 0.0 0.9 0.00 0.00 0.00 86 1022.6
20260502122109 25 230 0.0 0.0 0.00 0.00 0.00 86 1022.8
20260502121607 26 277 0.9 0.9 0.00 0.00 0.00 86 1022.4
20260502121104 25 283 0.9 1.7 0.00 0.00 0.00 88 1022.8
20260502120600 25 229 0.0 0.0 0.00 0.00 0.00 89 1022.6
20260502115556 26 229 0.0 0.0 0.00 0.00 0.00 88 1022.5
20260502115051 26 230 0.0 0.0 0.00 0.00 0.00 86 1022.6
20260502114547 26 230 0.0 0.0 0.00 0.00 0.00 85 1022.8
20260502114044 26 230 0.0 0.0 0.00 0.00 0.00 85 1022.6
20260502113542 26 230 0.0 0.9 0.00 0.00 0.00 85 1022.6
20260502113041 26 233 0.0 0.9 0.00 0.00 0.00 85 1022.5
20260502112538 26 227 0.0 0.0 0.00 0.00 0.00 86 1022.5
20260502112035 26 227 0.0 0.0 0.00 0.00 0.00 85 1022.9
20260502111532 26 227 0.0 0.0 0.00 0.00 0.00 86 1022.6
20260502111030 26 228 0.0 0.0 0.00 0.00 0.00 85 1022.8
20260502110527 26 229 0.0 0.9 0.00 0.00 0.00 85 1022.6
20260502110025 27 269 0.9 1.7 0.00 0.00 0.00 85 1022.9
20260502105522 27 159 0.0 0.9 0.00 0.00 0.00 86 1022.9
20260502105020 27 117 0.0 0.0 0.00 0.00 0.00 86 1022.9
20260502104516 27 116 0.0 0.0 0.00 0.00 0.00 84 1022.8
20260502104014 28 113 0.0 0.0 0.00 0.00 0.00 83 1023.1
20260502103511 28 16 0.0 0.9 0.00 0.00 0.00 83 1022.6
20260502103009 28 215 0.0 0.0 0.00 0.00 0.00 83 1022.9
20260502102505 28 215 0.0 0.0 0.00 0.00 0.00 83 1022.8
20260502102003 28 215 0.0 0.9 0.00 0.00 0.00 83 1022.6
20260502101500 28 215 0.9 0.9 0.00 0.00 0.00 82 1022.6
20260502100959 28 191 0.0 0.0 0.00 0.00 0.00 83 1022.8
20260502100457 28 223 0.0 0.0 0.00 0.00 0.00 83 1022.8
20260502091431 28 245 0.0 0.9 0.00 0.00 0.00 82 1022.5
20260502090928 28 245 0.0 0.0 0.00 0.00 0.00 81 1022.4
20260502090425 28 245 0.9 0.9 0.00 0.00 0.00 82 1022.3
20260502071320 32 232 0.0 0.9 0.00 0.00 0.00 80 1023.1
20260502070818 32 227 0.0 0.0 0.00 0.00 0.00 80 1023.0
20260502070315 32 228 0.0 0.0 0.00 0.00 0.00 79 1022.9
20260502065814 32 263 0.0 0.9 0.00 0.00 0.00 79 1023.0
20260502065312 33 278 0.0 0.9 0.00 0.00 0.00 78 1022.9
20260502064810 33 277 0.0 0.9 0.00 0.00 0.00 78 1022.8
20260502064308 33 285 0.0 0.0 0.00 0.00 0.00 77 1022.9
20260502063805 33 286 0.0 0.0 0.00 0.00 0.00 77 1023.0
20260502063303 33 292 0.0 0.9 0.00 0.00 0.00 77 1022.9
20260502062759 34 296 0.0 0.9 0.00 0.00 0.00 76 1023.1
20260502062257 34 296 0.0 0.9 0.00 0.00 0.00 76 1023.0
20260502061755 34 288 0.0 0.9 0.00 0.00 0.00 77 1023.0
20260502061253 34 279 0.0 0.0 0.00 0.00 0.00 77 1023.0
20260502060753 34 280 0.0 0.0 0.00 0.00 0.00 75 1023.0
20260502060249 34 292 0.0 0.9 0.00 0.00 0.00 76 1023.0
20260502055747 34 317 0.0 0.9 0.00 0.00 0.00 79 1023.2
20260502055244 35 319 0.0 0.0 0.00 0.00 0.00 75 1023.0
20260502054743 35 232 0.0 0.9 0.00 0.00 0.00 74 1023.0
20260502054241 36 210 0.9 0.9 0.00 0.00 0.00 73 1023.1
20260502053738 36 174 0.0 0.0 0.00 0.00 0.00 73 1023.1
20260502053235 36 173 0.0 0.0 0.00 0.00 0.00 72 1023.0
20260502052733 36 175 0.0 0.0 0.00 0.00 0.00 73 1022.8
20260502052231 37 216 0.0 0.9 0.00 0.00 0.00 71 1022.8
20260502051729 37 179 0.0 0.9 0.00 0.00 0.00 66 1023.0
20260502051227 37 287 0.0 0.9 0.00 0.00 0.00 66 1022.8
20260502050723 37 155 0.0 0.0 0.00 0.00 0.00 69 1023.0
20260502050219 37 156 0.0 0.0 0.00 0.00 0.00 72 1023.0
20260502045716 38 155 0.0 0.0 0.00 0.00 0.00 69 1023.0
20260502045213 37 156 0.0 0.0 0.00 0.00 0.00 66 1022.8
20260502044710 38 156 0.0 0.0 0.00 0.00 0.00 69 1022.9
20260502044206 38 156 0.0 0.0 0.00 0.00 0.00 69 1022.9
20260502043704 38 155 0.0 0.0 0.00 0.00 0.00 68 1023.1
20260502043201 39 180 0.0 0.0 0.00 0.00 0.00 66 1022.9
20260502042700 39 290 0.0 0.0 0.00 0.00 0.00 65 1022.8
20260502042158 39 290 0.0 0.0 0.00 0.00 0.00 63 1022.6
20260502041655 40 340 0.0 0.9 0.00 0.00 0.00 62 1023.0
20260502041152 40 353 0.0 0.9 0.00 0.00 0.00 57 1023.1
20260502040649 42 17 0.9 1.7 0.00 0.00 0.00 59 1022.9
20260502040146 42 204 0.0 0.9 0.00 0.00 0.00 54 1022.9
20260502035642 42 189 0.0 0.9 0.00 0.00 0.00 58 1022.8
20260502035139 43 137 0.9 0.9 0.00 0.00 0.00 53 1022.8
20260502034637 44 253 0.0 0.0 0.00 0.00 0.00 50 1022.6
20260502034136 44 253 0.0 0.0 0.00 0.00 0.00 51 1022.8
20260502033633 44 253 0.0 0.9 0.00 0.00 0.00 49 1022.4
20260502033131 44 252 0.0 0.0 0.00 0.00 0.00 52 1022.5
20260502032626 44 253 0.0 0.0 0.00 0.00 0.00 52 1022.3
20260502032123 44 252 0.0 0.9 0.00 0.00 0.00 54 1022.2
20260502031621 44 253 0.0 0.9 0.00 0.00 0.00 52 1022.1
20260502031119 44 252 0.9 0.9 0.00 0.00 0.00 52 1021.9
20260502030618 44 247 0.9 0.9 0.00 0.00 0.00 55 1021.8
20260502030115 45 247 0.9 0.9 0.00 0.00 0.00 55 1022.1
20260502025612 46 249 0.0 0.9 0.00 0.00 0.00 51 1021.8
20260502025110 46 253 0.9 1.7 0.00 0.00 0.00 51 1021.8
20260502024608 46 241 0.0 0.9 0.00 0.00 0.00 53 1021.6
20260502024106 46 241 0.9 0.9 0.00 0.00 0.00 52 1021.7
20260502023603 48 245 0.9 0.9 0.00 0.00 0.00 50 1021.5
20260502023100 52 232 0.9 0.9 0.00 0.00 0.00 47 1021.5
20260502022556 53 231 0.0 0.0 0.00 0.00 0.00 32 1021.1
20260502022054 55 231 0.0 0.0 0.00 0.00 0.00 37 1021.5
20260502021551 56 231 0.0 0.0 0.00 0.00 0.00 33 1021.2
20260502021048 59 231 0.0 0.0 0.00 0.00 0.00 30 1021.4
20260502020546 60 231 0.0 0.0 0.00 0.00 0.00 26 1021.4
20260502020042 62 231 0.0 0.0 0.00 0.00 0.00 26 1021.2
20260502015540 63 231 0.0 0.0 0.00 0.00 0.00 24 1021.2
20260502015036 64 231 0.0 0.0 0.00 0.00 0.00 24 1021.1
20260502014533 63 231 0.0 0.0 0.00 0.00 0.00 21 1021.5
20260502014030 63 232 0.0 0.0 0.00 0.00 0.00 20 1021.1
20260502013526 64 232 0.0 0.9 0.00 0.00 0.00 21 1020.8
20260502013022 64 233 0.9 1.7 0.00 0.00 0.00 18 1021.1
20260502012520 65 222 0.9 0.9 0.00 0.00 0.00 20 1020.9
20260502012017 65 222 0.0 0.9 0.00 0.00 0.00 20 1021.1
20260502011514 64 207 0.0 1.7 0.00 0.00 0.00 17 1021.0
20260502011010 65 191 1.7 1.7 0.00 0.00 0.00 17 1020.9
20260502010508 64 207 0.9 0.9 0.00 0.00 0.00 21 1021.2
20260502010004 64 209 0.9 1.7 0.00 0.00 0.00 18 1021.1
20260502005502 65 217 1.7 1.7 0.00 0.00 0.00 18 1021.0
20260502004959 65 263 1.7 2.6 0.00 0.00 0.00 19 1021.1
20260502004454 65 212 0.9 0.9 0.00 0.00 0.00 17 1021.0
20260502003952 64 237 1.7 2.6 0.00 0.00 0.00 19 1021.0
20260502003449 64 199 1.7 2.6 0.00 0.00 0.00 17 1020.9
20260502002945 66 197 1.7 3.5 0.00 0.00 0.00 20 1020.8
20260502002443 65 256 0.0 3.5 0.00 0.00 0.00 16 1020.9
20260502001940 66 272 1.7 2.6 0.00 0.00 0.00 17 1020.9
20260502001438 66 61 0.9 1.7 0.00 0.00 0.00 17 1021.0
20260502000935 65 291 0.9 0.9 0.00 0.00 0.00 17 1020.8
20260502000434 65 311 2.6 5.2 0.00 0.00 0.00 16 1021.0
20260501235929 65 283 3.5 3.5 0.00 0.00 0.00 18 1020.9
20260501235425 64 227 1.7 2.6 0.00 0.00 0.00 20 1021.2
20260501234920 64 185 1.7 3.5 0.00 0.00 0.00 19 1021.0
20260501234418 65 213 1.7 2.6 0.00 0.00 0.00 18 1021.0
20260501233916 65 233 1.7 2.6 0.00 0.00 0.00 16 1021.0
20260501233413 65 250 1.7 2.6 0.00 0.00 0.00 17 1021.1
20260501232908 65 246 0.9 3.5 0.00 0.00 0.00 18 1020.9
20260501232406 66 208 3.5 6.1 0.00 0.00 0.00 19 1021.1
20260501231903 66 189 1.7 2.6 0.00 0.00 0.00 18 1021.1
20260501231401 66 28 0.0 3.5 0.00 0.00 0.00 22 1021.1
20260501230859 66 8 0.9 2.6 0.00 0.00 0.00 18 1021.0
20260501230358 67 16 4.3 9.6 0.00 0.00 0.00 16 1021.1
20260501225855 67 104 0.0 3.5 0.00 0.00 0.00 15 1021.1
20260501225353 70 14 0.9 2.6 0.00 0.00 0.00 16 1021.1
20260501224848 69 106 0.9 1.7 0.00 0.00 0.00 19 1021.0
20260501224346 69 189 0.0 1.7 0.00 0.00 0.00 17 1021.1
20260501223842 67 179 0.0 1.7 0.00 0.00 0.00 20 1021.1
20260501223338 67 292 1.7 2.6 0.00 0.00 0.00 17 1021.1
20260501222834 68 192 1.7 2.6 0.00 0.00 0.00 19 1021.2
20260501222332 68 183 1.7 1.7 0.00 0.00 0.00 16 1021.4
20260501221829 67 96 0.9 1.7 0.00 0.00 0.00 22 1021.4
20260501221326 65 95 0.0 0.9 0.00 0.00 0.00 23 1021.5
20260501220824 65 19 3.5 7.8 0.00 0.00 0.00 20 1021.1
20260501220321 65 203 0.9 1.7 0.00 0.00 0.00 18 1021.2
20260501215817 64 15 0.0 5.2 0.00 0.00 0.00 16 1021.5
20260501215313 66 8 5.2 6.1 0.00 0.00 0.00 19 1021.7
20260501214809 66 291 1.7 5.2 0.00 0.00 0.00 17 1021.4
20260501214304 66 9 0.9 1.7 0.00 0.00 0.00 17 1021.6
20260501213801 64 170 0.0 1.7 0.00 0.00 0.00 21 1022.1
20260501213257 63 354 1.7 3.5 0.00 0.00 0.00 22 1021.5
20260501212753 64 230 4.3 7.0 0.00 0.00 0.00 22 1021.8
20260501212249 63 257 3.5 6.1 0.00 0.00 0.00 22 1021.8
20260501211747 64 298 3.5 6.1 0.00 0.00 0.00 19 1021.9
20260501211244 64 195 0.9 3.5 0.00 0.00 0.00 19 1022.2
20260501210741 65 195 0.9 2.6 0.00 0.00 0.00 20 1022.1
20260501210238 64 52 0.9 1.7 0.00 0.00 0.00 19 1021.8
20260501205734 63 269 1.7 2.6 0.00 0.00 0.00 18 1021.9
20260501205231 64 246 2.6 3.5 0.00 0.00 0.00 19 1022.1
20260501204728 67 163 1.7 1.7 0.00 0.00 0.00 18 1022.2
20260501204225 66 181 0.0 1.7 0.00 0.00 0.00 26 1022.3
20260501203721 66 95 1.7 2.6 0.00 0.00 0.00 26 1022.1
20260501203219 64 249 0.9 1.7 0.00 0.00 0.00 25 1022.2
20260501202715 62 145 0.9 1.7 0.00 0.00 0.00 23 1022.3
20260501202212 63 299 0.9 2.6 0.00 0.00 0.00 22 1022.2
20260501201709 63 216 1.7 2.6 0.00 0.00 0.00 19 1022.4
20260501201206 64 277 0.9 1.7 0.00 0.00 0.00 18 1022.3
20260501200702 63 164 0.9 2.6 0.00 0.00 0.00 18 1022.5
20260501200200 63 17 4.3 7.0 0.00 0.00 0.00 20 1022.5
20260501195657 62 12 7.0 9.6 0.00 0.00 0.00 22 1022.3
20260501195153 63 9 7.8 9.6 0.00 0.00 0.00 19 1022.4
20260501194649 62 34 5.2 7.0 0.00 0.00 0.00 22 1022.5
20260501194144 62 114 0.9 7.0 0.00 0.00 0.00 17 1022.4
20260501193642 62 18 3.5 3.5 0.00 0.00 0.00 23 1022.4
20260501193140 62 288 1.7 3.5 0.00 0.00 0.00 22 1022.4
20260501192637 64 358 3.5 5.2 0.00 0.00 0.00 21 1022.6
20260501192134 64 74 0.9 1.7 0.00 0.00 0.00 25 1022.5
20260501191632 63 35 1.7 3.5 0.00 0.00 0.00 21 1022.5
20260501191128 63 163 0.9 1.7 0.00 0.00 0.00 22 1022.5
20260501190625 64 229 0.9 2.6 0.00 0.00 0.00 23 1022.6
20260501190120 61 107 0.9 0.9 0.00 0.00 0.00 25 1022.6
20260501185616 60 15 3.5 6.1 0.00 0.00 0.00 21 1022.8
20260501185112 60 305 3.5 5.2 0.00 0.00 0.00 20 1022.8
20260501184608 62 4 5.2 7.8 0.00 0.00 0.00 22 1022.8
20260501184103 62 70 1.7 1.7 0.00 0.00 0.00 22 1022.6
20260501183600 61 182 0.9 2.6 0.00 0.00 0.00 24 1022.9
20260501183057 61 156 0.9 1.7 0.00 0.00 0.00 20 1022.8
20260501182554 60 97 0.9 6.1 0.00 0.00 0.00 23 1022.8
20260501182051 59 96 0.9 1.7 0.00 0.00 0.00 23 1022.9
20260501181548 59 160 0.9 5.2 0.00 0.00 0.00 20 1023.0
20260501181045 60 36 3.5 6.1 0.00 0.00 0.00 25 1023.1
20260501180543 59 340 3.5 5.2 0.00 0.00 0.00 27 1023.0
20260501180038 58 30 1.7 3.5 0.00 0.00 0.00 23 1023.1
20260501175535 59 25 1.7 3.5 0.00 0.00 0.00 22 1023.0
20260501175032 58 220 0.9 2.6 0.00 0.00 0.00 21 1023.0
20260501174529 58 236 0.9 3.5 0.00 0.00 0.00 21 1023.1
20260501174027 57 296 1.7 3.5 0.00 0.00 0.00 21 1023.2
20260501173524 58 271 3.5 7.0 0.00 0.00 0.00 21 1023.1
20260501173020 58 285 2.6 7.0 0.00 0.00 0.00 21 1023.3
20260501172516 58 2 2.6 5.2 0.00 0.00 0.00 22 1023.2
20260501172012 58 210 0.9 1.7 0.00 0.00 0.00 24 1023.0
20260501171508 57 152 0.9 1.7 0.00 0.00 0.00 26 1023.2
20260501171005 57 298 2.6 5.2 0.00 0.00 0.00 26 1023.3
20260501170501 57 286 1.7 2.6 0.00 0.00 0.00 24 1023.5
20260501165959 57 308 3.5 3.5 0.00 0.00 0.00 26 1023.3
20260501165456 56 306 1.7 5.2 0.00 0.00 0.00 26 1023.3
20260501164954 56 217 0.9 0.9 0.00 0.00 0.00 26 1023.3
20260501164452 56 282 2.6 6.1 0.00 0.00 0.00 24 1023.5
20260501163948 55 354 7.0 7.8 0.00 0.00 0.00 28 1023.3
20260501163444 55 276 2.6 3.5 0.00 0.00 0.00 25 1023.3
20260501162941 56 339 1.7 6.1 0.00 0.00 0.00 27 1023.5
20260501162437 55 172 0.0 2.6 0.00 0.00 0.00 27 1023.0
20260501161935 56 12 4.3 6.1 0.00 0.00 0.00 32 1023.1
20260501161431 55 99 2.6 3.5 0.00 0.00 0.00 33 1023.3
20260501160928 54 46 0.9 1.7 0.00 0.00 0.00 35 1023.6
20260501160425 53 201 0.9 1.7 0.00 0.00 0.00 34 1023.3
20260501155922 53 31 1.7 2.6 0.00 0.00 0.00 35 1023.3
20260501155419 52 119 0.9 0.9 0.00 0.00 0.00 37 1023.7
20260501154916 51 8 1.7 2.6 0.00 0.00 0.00 38 1023.6
20260501154413 51 101 0.9 1.7 0.00 0.00 0.00 35 1023.6
20260501153910 51 73 0.9 0.9 0.00 0.00 0.00 39 1023.5
20260501153408 51 121 0.0 1.7 0.00 0.00 0.00 35 1023.5
20260501152903 49 117 0.0 0.9 0.00 0.00 0.00 42 1023.7
20260501152401 49 139 0.9 0.9 0.00 0.00 0.00 46 1023.8